Time;durP1;ratioP1;P1;durP2;ratioP2;P2;SDS_P1;SDS_P2;PMS_P1;PMS_P2;Temp;Humidity;BMP_temperature;BMP_pressure;BME280_temperature;BME280_humidity;BME280_pressure;Samples;Min_cycle;Max_cycle;Signal;HPM_P1;HPM_P2
2022/10/17 00:00:21;;;;;;;27.13;13.98;;;;;;;10.72;59.19;101100.97;3146581;28;20044;-67
2022/10/17 00:01:53;;;;;;;26.73;14.80;;;;;;;10.70;58.98;101101.00;3146177;28;20502;-67
2022/10/17 00:03:24;;;;;;;25.52;14.70;;;;;;;10.70;58.90;101106.22;3146138;28;20048;-67
2022/10/17 00:04:58;;;;;;;27.65;13.35;;;;;;;10.70;59.17;101111.44;3146423;28;20073;-67
2022/10/17 00:06:30;;;;;;;25.40;13.27;;;;;;;10.66;58.99;101108.03;3146212;28;20048;-67
2022/10/17 00:08:02;;;;;;;27.13;14.48;;;;;;;10.65;59.22;101114.16;3146382;28;20118;-67
2022/10/17 00:09:33;;;;;;;23.65;14.00;;;;;;;10.64;58.97;101109.81;3146338;28;20064;-67
2022/10/17 00:11:08;;;;;;;22.92;13.38;;;;;;;10.63;59.03;101104.66;3146324;28;20056;-67
2022/10/17 00:12:40;;;;;;;25.88;13.43;;;;;;;10.62;59.27;101116.84;3142627;28;20040;-67
2022/10/17 00:14:12;;;;;;;22.55;13.30;;;;;;;10.60;59.53;101115.16;3139424;28;20052;-67
2022/10/17 00:15:43;;;;;;;32.72;14.93;;;;;;;10.61;59.28;101120.31;3146047;28;20079;-67
2022/10/17 00:17:15;;;;;;;24.05;14.10;;;;;;;10.61;59.36;101117.72;3145962;28;20052;-67
2022/10/17 00:18:47;;;;;;;24.05;13.50;;;;;;;10.60;59.37;101112.56;3146028;28;20052;-67
2022/10/17 00:20:20;;;;;;;22.70;13.25;;;;;;;10.60;59.53;101116.00;3146298;28;20053;-67
2022/10/17 00:21:52;;;;;;;;;;;;;;;10.52;59.55;101110.13;3146773;28;20106;-67
2022/10/17 00:23:26;;;;;;;23.25;12.70;;;;;;;10.53;59.29;101116.19;3146386;28;19930;-67
2022/10/17 00:24:58;;;;;;;25.08;12.68;;;;;;;10.51;59.60;101118.84;3145987;28;20051;-66
2022/10/17 00:26:29;;;;;;;25.85;12.80;;;;;;;10.50;59.73;101113.66;3145988;28;20049;-67
2022/10/17 00:28:00;;;;;;;25.98;13.02;;;;;;;10.48;59.80;101113.72;3145964;28;20444;-66
2022/10/17 00:29:32;;;;;;;25.50;13.60;;;;;;;10.45;59.89;101106.81;3146246;28;20055;-66
2022/10/17 00:31:06;;;;;;;24.15;13.93;;;;;;;10.45;59.65;101111.19;3145708;28;20109;-66
2022/10/17 00:32:37;;;;;;;23.83;13.25;;;;;;;10.44;60.08;101119.84;3145956;28;20040;-66
2022/10/17 00:34:09;;;;;;;28.00;13.85;;;;;;;10.42;60.24;101117.31;3145862;28;20052;-65
2022/10/17 00:35:41;;;;;;;22.98;12.63;;;;;;;10.41;60.15;101114.72;3145994;28;20068;-65
2022/10/17 00:37:13;;;;;;;26.30;12.85;;;;;;;10.39;60.16;101117.38;3145897;28;20048;-65
2022/10/17 00:38:47;;;;;;;25.67;13.57;;;;;;;10.39;59.95;101117.38;3141349;28;20216;-66
2022/10/17 00:40:19;;;;;;;25.83;12.85;;;;;;;10.38;60.35;101114.78;3144991;28;20052;-66
2022/10/17 00:41:51;;;;;;;24.75;13.40;;;;;;;10.39;60.26;101116.53;3145825;28;20106;-66
2022/10/17 00:43:23;;;;;;;21.05;12.65;;;;;;;10.39;60.18;101121.75;3145608;28;20445;-65
2022/10/17 00:45:02;;;;;;;29.70;12.77;;;;;;;10.38;59.98;101122.59;3145789;28;20049;-66
2022/10/17 00:46:35;;;;;;;24.38;11.85;;;;;;;10.36;60.26;101121.81;3145751;28;20053;-66
2022/10/17 00:48:07;;;;;;;;;;;;;;;10.31;60.23;101124.50;3146194;28;20052;-66
2022/10/17 00:49:40;;;;;;;23.92;11.68;;;;;;;10.29;59.87;101121.06;3145754;28;20368;-66
2022/10/17 00:51:13;;;;;;;19.25;12.13;;;;;;;10.29;59.90;101123.69;3145369;28;20374;-66
2022/10/17 00:52:44;;;;;;;;;;;;;;;10.24;60.23;101115.94;3146159;28;20484;-66
2022/10/17 00:54:20;;;;;;;21.63;11.60;;;;;;;10.23;60.09;101114.25;3145685;28;19999;-66
2022/10/17 00:55:54;;;;;;;23.13;11.77;;;;;;;10.24;60.40;101123.75;3145719;28;20052;-66
2022/10/17 00:57:27;;;;;;;20.50;11.52;;;;;;;10.23;60.26;101115.97;3133491;28;20102;-66
2022/10/17 00:58:59;;;;;;;24.90;11.25;;;;;;;10.22;60.47;101119.47;3144503;28;20525;-66
2022/10/17 01:00:31;;;;;;;25.10;11.32;;;;;;;10.20;60.60;101116.03;3145345;28;20051;-66
2022/10/17 01:02:05;;;;;;;19.63;10.98;;;;;;;10.21;60.10;101125.59;3145393;28;20053;-66
2022/10/17 01:03:36;;;;;;;;;;;;;;;10.16;60.64;101120.47;3145888;28;20044;-66
2022/10/17 01:05:10;;;;;;;17.95;9.10;;;;;;;10.14;60.33;101124.00;3145765;28;19925;-66
2022/10/17 01:06:44;;;;;;;17.52;9.38;;;;;;;10.10;60.30;101119.75;3145405;28;20060;-66
2022/10/17 01:08:16;;;;;;;19.30;9.50;;;;;;;10.08;60.81;101126.72;3145204;28;20437;-66
2022/10/17 01:09:48;;;;;;;17.17;8.82;;;;;;;10.06;60.53;101128.50;3145200;28;20044;-66
2022/10/17 01:11:33;;;;;;;17.83;9.23;;;;;;;10.03;60.50;101124.25;3145209;28;20044;-66
2022/10/17 01:13:12;;;;;;;19.58;8.70;;;;;;;9.99;60.86;101119.97;3145028;28;20053;-66
2022/10/17 01:14:53;;;;;;;16.58;8.85;;;;;;;9.93;60.82;101117.50;3145106;28;20137;-65
2022/10/17 01:16:39;;;;;;;14.10;8.07;;;;;;;9.96;60.59;101123.50;3145285;28;20044;-65
2022/10/17 01:18:31;;;;;;;15.65;8.15;;;;;;;9.95;60.40;101120.94;3145331;28;20052;-65
2022/10/17 01:20:37;;;;;;;16.83;8.05;;;;;;;9.94;60.57;101129.66;3145075;28;20056;-66
2022/10/17 01:22:14;;;;;;;15.10;7.85;;;;;;;9.91;60.54;101130.56;3145228;28;20102;-65
2022/10/17 01:24:35;;;;;;;14.13;7.90;;;;;;;9.91;60.44;101134.91;3145012;28;20486;-66
2022/10/17 01:26:19;;;;;;;14.43;7.78;;;;;;;9.88;60.63;101124.56;3094435;28;20068;-66
2022/10/17 01:27:59;;;;;;;;;;;;;;;9.86;60.67;101134.16;3095064;28;20133;-66
2022/10/17 01:29:52;;;;;;;13.45;8.40;;;;;;;9.82;60.73;101135.97;3094696;28;19933;-66
2022/10/17 01:31:29;;;;;;;15.63;8.52;;;;;;;9.83;60.68;101134.22;3112252;28;20083;-66
2022/10/17 01:33:06;;;;;;;14.77;7.95;;;;;;;9.82;60.86;101135.09;3145149;28;20121;-66
2022/10/17 01:34:44;;;;;;;14.70;7.75;;;;;;;9.82;60.87;101129.88;3144835;28;20047;-66
2022/10/17 01:36:27;;;;;;;15.75;7.70;;;;;;;9.82;60.82;101130.78;3145299;28;20051;-66
2022/10/17 01:38:07;;;;;;;15.25;7.45;;;;;;;9.77;60.98;101136.06;3144906;28;20048;-66
2022/10/17 01:39:44;;;;;;;12.57;7.45;;;;;;;9.73;60.66;101131.81;3139374;28;20105;-66
2022/10/17 01:41:26;;;;;;;13.23;7.15;;;;;;;9.73;61.10;101138.72;3144967;28;20134;-66
2022/10/17 01:43:02;;;;;;;14.50;7.97;;;;;;;9.70;61.00;101131.00;3144985;28;20162;-65
2022/10/17 01:44:42;;;;;;;18.30;7.68;;;;;;;9.65;61.19;101123.31;3145070;28;20409;-66
2022/10/17 01:46:23;;;;;;;19.88;8.38;;;;;;;9.67;60.87;101128.44;3144815;28;20056;-66
2022/10/17 01:48:02;;;;;;;14.05;7.55;;;;;;;9.66;61.17;101127.59;3144762;28;20048;-66
2022/10/17 01:49:37;;;;;;;15.15;7.78;;;;;;;9.67;60.80;101131.06;3145094;28;20048;-65
2022/10/17 01:51:15;;;;;;;15.48;7.93;;;;;;;9.66;60.93;101125.00;3144589;28;20546;-66
2022/10/17 01:52:51;;;;;;;13.13;7.10;;;;;;;9.65;61.14;101132.84;3145008;28;20525;-66
2022/10/17 01:54:27;;;;;;;16.08;7.57;;;;;;;9.64;61.35;101134.56;3137451;28;20056;-66
2022/10/17 01:56:01;;;;;;;15.15;7.88;;;;;;;9.63;61.21;101135.47;3134569;28;20056;-65
2022/10/17 01:57:38;;;;;;;19.30;8.18;;;;;;;9.62;60.93;101133.78;3136047;28;20083;-66
2022/10/17 01:59:14;;;;;;;13.88;7.45;;;;;;;9.57;61.21;101136.44;3135569;28;20600;-66
2022/10/17 02:00:49;;;;;;;15.45;8.07;;;;;;;9.61;60.92;101146.78;3134889;28;20053;-65
2022/10/17 02:02:21;;;;;;;13.40;7.20;;;;;;;9.59;61.10;101149.44;3135562;28;20052;-66
2022/10/17 02:03:58;;;;;;;19.30;8.23;;;;;;;9.59;60.92;101148.59;3135229;28;20518;-65
2022/10/17 02:05:35;;;;;;;15.88;8.40;;;;;;;9.55;61.04;101147.75;3135767;28;20456;-66
2022/10/17 02:07:07;;;;;;;15.38;7.82;;;;;;;9.53;60.99;101150.41;3135511;28;20565;-65
2022/10/17 02:08:45;;;;;;;12.82;7.38;;;;;;;9.52;61.23;101153.91;3129485;28;20056;-65
2022/10/17 02:10:35;;;;;;;16.02;7.32;;;;;;;9.51;61.38;101152.16;3127720;28;20264;-65
2022/10/17 02:12:39;;;;;;;15.85;7.85;;;;;;;9.51;61.45;101159.13;3134321;28;20056;-65
2022/10/17 02:14:22;;;;;;;12.82;7.57;;;;;;;9.46;61.55;101159.19;3135244;28;20087;-66
2022/10/17 02:16:12;;;;;;;16.02;7.40;;;;;;;9.45;61.42;101160.09;3135784;28;20063;-65
2022/10/17 02:17:53;;;;;;;14.68;6.93;;;;;;;9.43;61.69;101148.84;3135045;28;20069;-67
2022/10/17 02:19:54;;;;;;;16.63;7.00;;;;;;;9.42;61.54;101159.28;3134543;28;20114;-65
2022/10/17 02:21:34;;;;;;;19.77;7.07;;;;;;;9.40;61.79;101167.09;3134576;28;20094;-65
2022/10/17 02:23:11;;;;;;;14.48;6.57;;;;;;;9.37;62.05;101159.38;3134798;28;20052;-65
2022/10/17 02:24:49;;;;;;;18.88;6.90;;;;;;;9.37;61.86;101159.38;3134390;28;20056;-65
2022/10/17 02:26:28;;;;;;;12.80;6.82;;;;;;;9.33;62.14;101163.78;3135423;28;20268;-66
2022/10/17 02:28:08;;;;;;;13.80;7.35;;;;;;;9.24;62.39;101166.53;3134078;28;20610;-66
2022/10/17 02:29:47;;;;;;;16.27;6.85;;;;;;;9.19;62.55;101163.16;3134720;28;20052;-66
2022/10/17 02:31:26;;;;;;;12.63;6.93;;;;;;;9.15;62.73;101165.84;3134748;28;20176;-66
2022/10/17 02:33:01;;;;;;;15.82;6.68;;;;;;;9.10;62.46;101163.31;3134986;28;20110;-65
2022/10/17 02:34:39;;;;;;;12.80;7.07;;;;;;;9.01;63.02;101173.88;3134245;28;20044;-64
2022/10/17 02:36:18;;;;;;;14.35;7.30;;;;;;;8.97;62.94;101164.44;3134952;28;20044;-64
2022/10/17 02:37:51;;;;;;;14.02;7.15;;;;;;;8.93;63.18;101171.38;3138027;28;20052;-65
2022/10/17 02:39:25;;;;;;;;;;;;;;;8.82;63.44;101176.78;3131710;28;20131;-65
2022/10/17 02:40:57;;;;;;;11.30;6.50;;;;;;;8.81;63.31;101176.78;3137136;28;19979;-65
2022/10/17 02:42:29;;;;;;;13.95;7.15;;;;;;;8.79;63.51;101171.63;3136698;28;20049;-67
2022/10/17 02:44:05;;;;;;;16.48;7.10;;;;;;;8.82;63.42;101178.53;3137436;28;20052;-67
2022/10/17 02:45:38;;;;;;;14.55;7.22;;;;;;;8.82;63.53;101183.72;3138285;28;20401;-65
2022/10/17 02:47:16;;;;;;;11.65;7.43;;;;;;;8.84;63.35;101190.63;3138100;28;20118;-66
2022/10/17 02:48:50;;;;;;;18.25;7.25;;;;;;;8.85;63.30;101187.13;3138299;28;20105;-63
2022/10/17 02:50:30;;;;;;;13.70;7.40;;;;;;;8.84;63.35;101188.00;3138150;28;20083;-64
2022/10/17 02:52:10;;;;;;;18.98;7.10;;;;;;;8.85;63.39;101186.25;3137110;28;20090;-64
2022/10/17 02:53:51;;;;;;;14.82;7.07;;;;;;;8.85;63.52;101187.13;3137034;28;20092;-65
2022/10/17 02:55:31;;;;;;;12.48;6.75;;;;;;;8.85;63.25;101192.31;3137374;28;20048;-65
2022/10/17 02:57:09;;;;;;;12.18;6.70;;;;;;;8.84;63.33;101195.81;3137503;28;20076;-65
2022/10/17 02:58:43;;;;;;;13.18;6.95;;;;;;;8.83;63.56;101201.84;3136803;28;20205;-65
2022/10/17 03:00:17;;;;;;;18.83;7.07;;;;;;;8.79;63.44;101187.22;3136551;28;20135;-65
2022/10/17 03:01:51;;;;;;;12.00;6.30;;;;;;;8.82;63.36;101192.38;3136867;28;20460;-65
2022/10/17 03:03:23;;;;;;;;;;;;;;;8.80;63.49;101201.91;3137358;28;20054;-66
2022/10/17 03:04:55;;;;;;;13.45;7.43;;;;;;;8.81;63.47;101203.63;3135568;28;20358;-66
2022/10/17 03:06:27;;;;;;;14.52;7.35;;;;;;;8.81;63.43;101198.41;3136375;28;20091;-66
2022/10/17 03:07:59;;;;;;;14.32;6.93;;;;;;;8.82;63.40;101202.75;3136351;28;20363;-66
2022/10/17 03:09:31;;;;;;;13.50;6.45;;;;;;;8.78;63.52;101201.06;3136698;28;20056;-65
2022/10/17 03:11:03;;;;;;;14.95;7.70;;;;;;;8.77;63.52;101195.91;3136618;28;20048;-65
2022/10/17 03:12:34;;;;;;;10.52;6.35;;;;;;;8.74;63.68;101202.00;3136314;28;20063;-65
2022/10/17 03:14:07;;;;;;;13.73;7.60;;;;;;;8.72;63.85;101195.13;3136531;28;20162;-65
2022/10/17 03:15:38;;;;;;;12.23;7.05;;;;;;;8.69;64.10;101192.56;3138010;28;20373;-65
2022/10/17 03:17:10;;;;;;;13.75;6.97;;;;;;;8.69;63.94;101193.41;3137691;28;20083;-65
2022/10/17 03:18:41;;;;;;;18.30;8.27;;;;;;;8.68;63.93;101194.31;3136642;28;20059;-65
2022/10/17 03:20:13;;;;;;;17.35;8.65;;;;;;;8.62;64.38;101199.59;3136539;28;20129;-65
2022/10/17 03:21:44;;;;;;;12.43;7.00;;;;;;;8.62;64.13;101194.41;3137432;28;20057;-65
2022/10/17 03:23:18;;;;;;;14.80;7.88;;;;;;;8.62;64.37;101197.00;3137956;28;20068;-65
2022/10/17 03:24:48;;;;;;;;;;;;;;;8.60;64.38;101207.41;3138182;28;20052;-64
2022/10/17 03:26:20;;;;;;;15.20;7.38;;;;;;;8.60;64.16;101206.53;3137919;28;20273;-65
2022/10/17 03:27:53;;;;;;;14.65;6.97;;;;;;;8.59;64.16;101204.84;3137168;28;20060;-64
2022/10/17 03:29:25;;;;;;;12.68;7.28;;;;;;;8.60;64.02;101201.34;3136598;28;20098;-65
2022/10/17 03:30:57;;;;;;;13.85;7.80;;;;;;;8.60;64.14;101204.81;3136438;28;20052;-65
2022/10/17 03:32:29;;;;;;;14.88;7.07;;;;;;;8.62;64.32;101199.59;3136315;28;20139;-65
2022/10/17 03:34:01;;;;;;;15.20;7.65;;;;;;;8.62;64.22;101200.44;3136327;28;20056;-65
2022/10/17 03:35:33;;;;;;;12.75;6.90;;;;;;;8.61;64.11;101197.91;3136247;28;20540;-65
2022/10/17 03:37:05;;;;;;;14.00;6.82;;;;;;;8.60;64.17;101197.00;3136554;28;20159;-65
2022/10/17 03:38:38;;;;;;;11.23;6.80;;;;;;;8.56;64.34;101190.16;3137289;28;20048;-67
2022/10/17 03:40:11;;;;;;;15.83;6.87;;;;;;;8.60;64.19;101193.56;3137708;28;20101;-65
2022/10/17 03:41:43;;;;;;;15.63;8.25;;;;;;;8.59;64.17;101192.69;3137647;28;20117;-65
2022/10/17 03:43:14;;;;;;;13.77;7.55;;;;;;;8.60;64.21;101193.56;3137035;28;20505;-65
2022/10/17 03:44:46;;;;;;;10.82;6.78;;;;;;;8.61;64.27;101198.75;3136025;28;20135;-65
2022/10/17 03:46:18;;;;;;;11.77;7.30;;;;;;;8.63;64.13;101202.16;3136755;28;20856;-66
2022/10/17 03:47:50;;;;;;;12.77;7.65;;;;;;;8.62;64.13;101197.00;3137528;28;20056;-65
2022/10/17 03:49:22;;;;;;;13.25;6.70;;;;;;;8.58;64.24;101206.59;3137367;28;20056;-65
2022/10/17 03:51:00;;;;;;;17.02;7.55;;;;;;;8.62;64.06;101217.78;3136295;28;20538;-64
2022/10/17 03:52:32;;;;;;;14.15;7.00;;;;;;;8.61;64.31;101218.66;3137104;28;20060;-65
2022/10/17 03:54:05;;;;;;;12.30;6.80;;;;;;;8.60;64.22;101215.19;3137182;28;20052;-66
2022/10/17 03:55:38;;;;;;;18.58;7.18;;;;;;;8.58;64.22;101224.75;3135119;28;20587;-65
2022/10/17 03:57:16;;;;;;;11.65;7.20;;;;;;;8.58;64.21;101219.56;3138245;28;20060;-66
2022/10/17 03:58:48;;;;;;;16.10;7.55;;;;;;;8.57;64.39;101216.97;3145749;28;20106;-65
2022/10/17 04:00:20;;;;;;;14.50;6.88;;;;;;;8.57;64.38;101204.00;3145251;28;20117;-66
2022/10/17 04:01:52;;;;;;;17.58;7.60;;;;;;;8.56;64.17;101207.47;3145102;28;20048;-65
2022/10/17 04:03:23;;;;;;;15.68;7.57;;;;;;;8.57;64.20;101199.66;3145849;28;20056;-66
2022/10/17 04:04:55;;;;;;;14.27;7.32;;;;;;;8.56;64.22;101199.69;3146027;28;20053;-67
2022/10/17 04:06:27;;;;;;;14.23;7.10;;;;;;;8.58;64.17;101203.97;3146233;28;20425;-67
2022/10/17 04:07:59;;;;;;;14.80;7.30;;;;;;;8.57;64.51;101197.06;3145403;28;20113;-66
2022/10/17 04:09:32;;;;;;;17.00;7.47;;;;;;;8.61;64.38;101192.69;3146053;28;20045;-65
2022/10/17 04:11:06;;;;;;;13.52;8.02;;;;;;;8.62;64.29;101191.81;3145037;28;20052;-65
2022/10/17 04:12:38;;;;;;;12.43;7.32;;;;;;;8.59;64.22;101192.69;3146209;28;20055;-67
2022/10/17 04:14:11;;;;;;;13.52;6.85;;;;;;;8.62;64.19;101194.41;3145791;28;20052;-67
2022/10/17 04:15:43;;;;;;;16.33;6.97;;;;;;;8.63;64.17;101198.72;3145885;28;20097;-69
2022/10/17 04:17:14;;;;;;;14.52;7.50;;;;;;;8.60;64.00;101203.94;3143550;28;20093;-66
2022/10/17 04:18:46;;;;;;;11.82;7.18;;;;;;;8.58;63.98;101210.91;3137845;28;20564;-67
2022/10/17 04:20:18;;;;;;;14.15;7.55;;;;;;;8.54;64.05;101215.28;3145813;28;20052;-66
2022/10/17 04:21:50;;;;;;;78.28;38.53;;;;;;;8.46;64.43;101209.34;3145180;28;20480;-67
2022/10/17 04:23:22;;;;;;;57.88;28.05;;;;;;;8.43;64.64;101212.84;3145872;28;20049;-67
2022/10/17 04:24:56;;;;;;;31.25;15.88;;;;;;;8.42;64.67;101224.09;3145748;28;20739;-69
2022/10/17 04:26:28;;;;;;;20.17;8.13;;;;;;;8.37;64.60;101214.63;3143480;28;20074;-68
2022/10/17 04:27:59;;;;;;;17.10;8.30;;;;;;;8.36;64.54;101221.53;3145791;28;20491;-68
2022/10/17 04:29:31;;;;;;;14.30;8.20;;;;;;;8.37;64.77;101217.22;3145718;28;20106;-69
2022/10/17 04:31:05;;;;;;;21.33;7.82;;;;;;;8.37;64.68;101223.28;3145910;28;20106;-67
2022/10/17 04:32:38;;;;;;;17.90;8.45;;;;;;;8.37;64.86;101225.00;3145733;28;20128;-66
2022/10/17 04:34:10;;;;;;;16.95;8.00;;;;;;;8.32;65.09;101222.47;3133245;28;20080;-67
2022/10/17 04:35:41;;;;;;;16.60;7.80;;;;;;;8.27;65.16;101219.06;3144425;28;20506;-66
2022/10/17 04:37:13;;;;;;;11.35;7.15;;;;;;;8.23;65.26;101214.81;3145759;28;20048;-66
2022/10/17 04:38:45;;;;;;;15.90;7.93;;;;;;;8.21;65.47;101225.19;3141032;28;20052;-66
2022/10/17 04:40:19;;;;;;;18.08;8.00;;;;;;;8.22;65.29;101226.06;3140321;28;20135;-67
2022/10/17 04:41:51;;;;;;;20.40;7.82;;;;;;;8.19;65.55;101239.06;3145830;28;20056;-69
2022/10/17 04:43:23;;;;;;;18.10;8.23;;;;;;;8.19;65.59;101239.06;3145770;28;20052;-66
2022/10/17 04:44:55;;;;;;;14.38;8.02;;;;;;;8.21;65.54;101229.53;3145538;28;20040;-67
2022/10/17 04:46:27;;;;;;;17.08;7.65;;;;;;;8.23;65.46;101230.38;3145095;28;20063;-67
2022/10/17 04:47:59;;;;;;;23.20;8.43;;;;;;;8.24;65.49;101229.50;3145269;28;20102;-67
2022/10/17 04:49:30;;;;;;;18.35;7.80;;;;;;;8.24;65.26;101229.50;3145327;28;20394;-67
2022/10/17 04:51:06;;;;;;;17.63;7.55;;;;;;;8.25;65.30;101228.59;3144992;28;20131;-67
2022/10/17 04:52:37;;;;;;;14.63;7.22;;;;;;;8.26;65.27;101229.50;3144474;28;20525;-67
2022/10/17 04:54:09;;;;;;;13.65;7.55;;;;;;;8.26;65.45;101234.69;3145353;28;20048;-67
2022/10/17 04:55:43;;;;;;;14.45;7.13;;;;;;;8.25;65.45;101241.59;3145502;28;20049;-67
2022/10/17 04:57:15;;;;;;;18.45;7.53;;;;;;;8.23;65.33;101242.50;3144323;28;20110;-67
2022/10/17 04:58:47;;;;;;;15.65;7.75;;;;;;;8.22;65.42;101241.63;3144017;28;20524;-67
2022/10/17 05:00:19;;;;;;;24.15;8.23;;;;;;;8.23;65.34;101248.56;3143794;28;20660;-67
2022/10/17 05:01:50;;;;;;;17.70;8.10;;;;;;;8.26;65.47;101250.25;3144021;28;20123;-69
2022/10/17 05:03:22;;;;;;;21.00;7.38;;;;;;;8.27;65.40;101250.22;3144078;28;20559;-68
2022/10/17 05:04:54;;;;;;;20.08;8.65;;;;;;;8.29;65.31;101258.00;3144181;28;20052;-69
2022/10/17 05:06:27;;;;;;;26.83;11.70;;;;;;;8.31;65.00;101267.50;3143989;28;20433;-69
2022/10/17 05:07:59;;;;;;;28.98;8.10;;;;;;;8.33;65.07;101280.44;3144033;28;20083;-68
2022/10/17 05:09:31;;;;;;;29.23;7.95;;;;;;;8.36;64.98;101285.59;3144105;28;20052;-67
2022/10/17 05:11:05;;;;;;;13.65;7.88;;;;;;;8.38;65.01;101283.84;3144054;28;20121;-67
2022/10/17 05:12:37;;;;;;;20.73;8.05;;;;;;;8.38;65.04;101284.72;3144746;28;20219;-67
2022/10/17 05:14:09;;;;;;;17.23;8.38;;;;;;;8.37;65.20;101283.00;3145006;28;20053;-67
2022/10/17 05:15:41;;;;;;;15.75;6.97;;;;;;;8.37;65.27;101287.28;3144909;28;20059;-66
2022/10/17 05:17:13;;;;;;;12.70;6.78;;;;;;;8.39;65.11;101286.44;3145202;28;20102;-67
2022/10/17 05:18:44;;;;;;;14.70;7.60;;;;;;;8.39;64.85;101289.03;3144711;28;20056;-69
2022/10/17 05:20:16;;;;;;;16.35;7.30;;;;;;;8.41;64.86;101287.28;3145086;28;20078;-71
2022/10/17 05:21:48;;;;;;;15.02;7.40;;;;;;;8.42;65.06;101285.53;3145012;28;20068;-71
2022/10/17 05:23:20;;;;;;;17.13;7.05;;;;;;;8.43;64.87;101279.50;3144343;28;20558;-71
2022/10/17 05:24:52;;;;;;;20.50;7.40;;;;;;;8.49;64.89;101281.13;3144788;28;20106;-71
2022/10/17 05:26:28;;;;;;;13.20;7.40;;;;;;;8.54;64.79;101295.75;3141845;28;20101;-72
2022/10/17 05:27:59;;;;;;;66.25;29.10;;;;;;;8.57;64.88;101294.88;3145087;28;20052;-71
2022/10/17 05:29:31;;;;;;;19.48;7.53;;;;;;;8.62;64.78;101304.31;3145211;28;20133;-72
2022/10/17 05:31:04;;;;;;;25.45;13.32;;;;;;;8.68;64.42;101302.53;3144811;28;20055;-70
2022/10/17 05:32:38;;;;;;;17.33;8.35;;;;;;;8.72;64.58;101305.06;3144369;28;20049;-70
2022/10/17 05:34:10;;;;;;;16.27;7.57;;;;;;;8.77;64.21;101305.00;3143059;28;20087;-73
2022/10/17 05:35:42;;;;;;;17.27;9.07;;;;;;;8.81;64.18;101302.31;3144227;28;20049;-70
2022/10/17 05:37:13;;;;;;;18.52;7.32;;;;;;;8.81;64.05;101299.72;3144739;28;20071;-68
2022/10/17 05:38:49;;;;;;;21.00;7.22;;;;;;;8.90;64.07;101311.72;3141485;28;20111;-67
2022/10/17 05:40:21;;;;;;;11.90;6.75;;;;;;;8.95;63.84;101314.28;3143656;28;20444;-69
2022/10/17 05:41:54;;;;;;;17.60;6.93;;;;;;;8.97;63.66;101310.78;3144745;28;20041;-67
2022/10/17 05:43:26;;;;;;;16.65;6.50;;;;;;;9.02;63.58;101315.91;3143913;28;20436;-68
2022/10/17 05:44:58;;;;;;;11.45;6.55;;;;;;;9.07;63.52;101316.69;3144069;28;20052;-68
2022/10/17 05:46:30;;;;;;;16.55;6.55;;;;;;;9.10;63.50;101320.09;3144909;28;20048;-65
2022/10/17 05:48:02;;;;;;;17.85;6.82;;;;;;;9.16;63.53;101320.91;3144353;28;20106;-64
2022/10/17 05:49:34;;;;;;;15.60;7.38;;;;;;;9.19;63.34;101321.69;3144830;28;20445;-68
2022/10/17 05:51:08;;;;;;;14.30;7.18;;;;;;;9.26;63.42;101322.50;3144378;28;20059;-64
2022/10/17 05:52:40;;;;;;;17.98;6.85;;;;;;;9.30;63.23;101325.00;3144892;28;20060;-68
2022/10/17 05:54:12;;;;;;;12.35;6.15;;;;;;;9.36;63.03;101324.06;3144645;28;20048;-66
2022/10/17 05:55:44;;;;;;;12.38;6.30;;;;;;;9.44;62.96;101326.53;3144770;28;20059;-66
2022/10/17 05:57:17;;;;;;;11.45;6.40;;;;;;;9.52;63.06;101325.53;3144963;28;20453;-72
2022/10/17 05:58:49;;;;;;;13.13;7.03;;;;;;;9.61;62.87;101332.31;3144963;28;20500;-69
2022/10/17 06:00:21;;;;;;;16.15;6.30;;;;;;;9.73;62.68;101336.44;3144142;28;20045;-71
2022/10/17 06:01:55;;;;;;;12.70;6.28;;;;;;;9.78;62.57;101334.63;3144117;28;20048;-70
2022/10/17 06:03:27;;;;;;;18.92;6.70;;;;;;;9.94;62.31;101338.69;3143829;28;20437;-70
2022/10/17 06:04:59;;;;;;;13.48;6.95;;;;;;;10.05;62.39;101345.44;3144762;28;20044;-70
2022/10/17 06:06:30;;;;;;;24.65;6.97;;;;;;;10.17;62.36;101342.59;3144390;28;20055;-68
2022/10/17 06:08:02;;;;;;;17.45;6.55;;;;;;;10.29;61.92;101344.13;3144678;28;20057;-67
2022/10/17 06:09:34;;;;;;;15.23;7.10;;;;;;;10.42;61.66;101343.03;3144930;28;20449;-65
2022/10/17 06:11:06;;;;;;;16.13;6.40;;;;;;;10.51;60.92;101350.66;3143487;28;20048;-67
2022/10/17 06:12:39;;;;;;;12.57;5.57;;;;;;;10.68;60.68;101345.97;3144544;28;20495;-68
2022/10/17 06:14:11;;;;;;;10.60;6.22;;;;;;;10.82;60.42;101344.78;3144704;28;20052;-67
2022/10/17 06:15:43;;;;;;;17.83;5.53;;;;;;;11.00;60.24;101343.53;3144731;28;20051;-69
2022/10/17 06:17:15;;;;;;;12.75;6.20;;;;;;;11.19;59.73;101350.06;3141225;28;20055;-68
2022/10/17 06:18:47;;;;;;;15.00;6.30;;;;;;;11.28;58.47;101362.03;3144718;28;20048;-68
2022/10/17 06:20:18;;;;;;;14.57;5.65;;;;;;;11.36;58.10;101366.19;3144488;28;20053;-68
2022/10/17 06:21:50;;;;;;;11.07;6.03;;;;;;;11.44;57.58;101368.59;3145019;28;20049;-71
2022/10/17 06:23:22;;;;;;;14.77;6.68;;;;;;;11.54;57.19;101362.28;3144523;28;20102;-70
2022/10/17 06:24:54;;;;;;;16.25;6.55;;;;;;;11.69;57.07;101358.44;3144585;28;20049;-71
2022/10/17 06:26:26;;;;;;;17.35;7.05;;;;;;;11.86;56.55;101362.38;3144467;28;20045;-72
2022/10/17 06:28:00;;;;;;;13.80;6.38;;;;;;;11.95;56.22;101360.41;3144585;28;20055;-70
2022/10/17 06:29:31;;;;;;;16.73;6.65;;;;;;;12.07;56.05;101367.94;3144612;28;20053;-69
2022/10/17 06:31:07;;;;;;;15.43;5.65;;;;;;;12.25;55.96;101366.56;3144478;28;20139;-68
2022/10/17 06:32:38;;;;;;;11.23;5.88;;;;;;;12.44;55.91;101366.91;3144691;28;20045;-69
2022/10/17 06:34:10;;;;;;;14.38;6.65;;;;;;;12.62;55.56;101367.31;3144964;28;20040;-69
2022/10/17 06:35:42;;;;;;;11.63;5.35;;;;;;;12.91;55.08;101363.84;3144559;28;20059;-66
2022/10/17 06:37:14;;;;;;;15.85;6.55;;;;;;;13.26;54.93;101361.94;3143311;28;20052;-66
2022/10/17 06:38:46;;;;;;;19.63;6.85;;;;;;;13.60;53.96;101362.56;3144176;28;20056;-66
2022/10/17 06:40:18;;;;;;;17.45;6.85;;;;;;;13.85;53.05;101365.22;3144608;28;20131;-68
2022/10/17 06:41:50;;;;;;;11.60;6.68;;;;;;;14.04;52.56;101370.69;3144603;28;20064;-67
2022/10/17 06:43:23;;;;;;;35.78;15.52;;;;;;;14.22;52.27;101370.94;3144155;28;20048;-68
2022/10/17 06:44:55;;;;;;;15.27;7.32;;;;;;;14.28;51.19;101368.13;3144319;28;20576;-67
2022/10/17 06:46:28;;;;;;;17.77;7.63;;;;;;;14.34;50.73;101370.50;3144135;28;20052;-66
2022/10/17 06:48:01;;;;;;;;;;;;;;;14.30;50.30;101364.53;3144567;28;20143;-67
2022/10/17 06:49:33;;;;;;;16.40;6.30;;;;;;;14.38;50.34;101355.56;3144428;28;19924;-67
2022/10/17 06:51:08;;;;;;;15.00;6.32;;;;;;;14.84;49.73;101364.34;3137749;28;20110;-67
2022/10/17 06:52:40;;;;;;;14.85;6.18;;;;;;;15.35;48.87;101368.47;3141595;28;20583;-69
2022/10/17 06:54:12;;;;;;;20.48;6.60;;;;;;;15.75;47.61;101366.91;3144038;28;20500;-68
2022/10/17 06:55:44;;;;;;;21.50;7.63;;;;;;;16.11;47.35;101360.06;3144556;28;20044;-68
2022/10/17 06:57:16;;;;;;;20.95;7.93;;;;;;;16.45;46.99;101361.22;3144735;28;20411;-70
2022/10/17 06:58:50;;;;;;;20.23;7.10;;;;;;;16.82;46.48;101362.19;3144805;28;20056;-67
2022/10/17 07:00:22;;;;;;;21.05;6.68;;;;;;;17.20;45.77;101359.56;3144733;28;20247;-70
2022/10/17 07:01:54;;;;;;;13.07;6.50;;;;;;;17.57;45.17;101360.38;3144857;28;20084;-71
2022/10/17 07:03:26;;;;;;;11.82;7.40;;;;;;;17.92;44.14;101363.91;3144505;28;20311;-68
2022/10/17 07:04:58;;;;;;;13.00;6.40;;;;;;;18.26;43.28;101363.03;3144657;28;20071;-70
2022/10/17 07:06:30;;;;;;;12.07;7.13;;;;;;;18.62;42.51;101359.38;3141324;28;20052;-68
2022/10/17 07:08:05;;;;;;;24.17;7.10;;;;;;;18.89;41.69;101364.13;3139862;28;20122;-69
2022/10/17 07:09:37;;;;;;;1026.30;85.18;;;;;;;19.03;40.82;101367.69;3144729;28;20053;-67
2022/10/17 07:11:10;;;;;;;313.55;26.38;;;;;;;19.47;40.05;101369.63;3143870;28;20106;-72
2022/10/17 07:12:43;;;;;;;33.80;7.30;;;;;;;20.15;38.55;101363.88;3144472;28;20803;-73
2022/10/17 07:14:16;;;;;;;17.27;7.03;;;;;;;21.78;35.86;101362.34;3144277;28;20049;-67
2022/10/17 07:15:48;;;;;;;10.77;7.22;;;;;;;23.22;33.70;101370.00;3144822;28;20057;-68
2022/10/17 07:17:20;;;;;;;10.88;6.85;;;;;;;24.35;32.01;101370.38;3142551;28;20052;-67